ADDS METAR Data INFO
IDs: Format: Raw Decoded Include TAF

Data at: 2009 UTC 19 Oct 2017

KOGA 191955Z AUTO 18013G18KT 10SM CLR 29/04 A2992 RMK AO2 T02860039
KOGA 191935Z AUTO 17010G18KT 10SM CLR 28/05 A2993 RMK AO2 T02780052
KOGA 191915Z AUTO 19011KT 10SM CLR 27/05 A2995 RMK AO2 T02730052
KOGA 191855Z AUTO 18011G15KT 10SM CLR 27/06 A2996 RMK AO2 T02690055
KOGA 191835Z AUTO 17008G11KT 10SM CLR 26/05 A2997 RMK AO2 T02630050
KOGA 191815Z AUTO 19009G17KT 160V220 10SM CLR 25/05 A2999 RMK AO2 T02540051
KOGA 191755Z AUTO 18007KT 10SM CLR 24/06 A3000 RMK AO2 T02440057 10244 20011
KOGA 191735Z AUTO 20011KT 10SM CLR 24/06 A3000 RMK AO2 T02400055
KOGA 191715Z AUTO 00000KT 10SM CLR 21/05 A3001 RMK AO2 T02110054
KOGA 191655Z AUTO 00000KT 10SM CLR 18/05 A3003 RMK AO2 T01830049
KOGA 191635Z AUTO 00000KT 7SM CLR 17/04 A3003 RMK AO2 T01670044
KOGA 191615Z AUTO 00000KT 10SM CLR 15/04 A3004 RMK AO2 T01520043
KOGA 191555Z AUTO 00000KT 10SM CLR 14/04 A3004 RMK AO2 T01380041
KOGA 191535Z AUTO 00000KT 10SM CLR 13/04 A3005 RMK AO2 T01250036
KOGA 191515Z AUTO 00000KT 10SM CLR 11/04 A3005 RMK AO2 T01080036
KOGA 191415Z AUTO 00000KT 10SM CLR 04/02 A3005 RMK AO2 T00430020
KOGA 191355Z AUTO 00000KT 10SM CLR 03/01 A3005 RMK AO2 T00250007
KOGA 191335Z AUTO 00000KT 10SM CLR 01/00 A3005 RMK AO2 T00140000
KOGA 191315Z AUTO 00000KT 10SM CLR 02/00 A3005 RMK AO2 T00150000
KOGA 191255Z AUTO 00000KT 10SM CLR 01/00 A3005 RMK AO2 T00121004
KOGA 191235Z AUTO 00000KT 10SM CLR 02/00 A3005 RMK AO2 T00170000
KOGA 191215Z AUTO 00000KT 10SM CLR 02/00 A3005 RMK AO2 T00160000
KOGA 191155Z AUTO 00000KT 10SM CLR 02/00 A3006 RMK AO2 T00181001 10067 20008
KOGA 191135Z AUTO 00000KT 10SM CLR 03/00 A3006 RMK AO2 T00290004
KOGA 191115Z AUTO 00000KT 10SM CLR 03/00 A3007 RMK AO2 T00260004
KOGA 191055Z AUTO 00000KT 10SM CLR 01/M01 A3007 RMK AO2 T00091006
KOGA 191035Z AUTO 00000KT 10SM CLR 01/00 A3007 RMK AO2 T00121001
KOGA 191015Z AUTO 00000KT 10SM CLR 02/00 A3007 RMK AO2 T00160001
KOGA 190955Z AUTO 00000KT 10SM CLR 02/00 A3007 RMK AO2 T00200001
KOGA 190935Z AUTO 00000KT 10SM CLR 02/00 A3008 RMK AO2 T00161001
KOGA 190915Z AUTO 00000KT 10SM CLR 02/00 A3008 RMK AO2 T00200002
KOGA 190855Z AUTO 00000KT 10SM CLR 03/00 A3009 RMK AO2 T00260001
KOGA 190835Z AUTO 00000KT 10SM CLR 04/00 A3010 RMK AO2 T00350001
KOGA 190815Z AUTO 00000KT 10SM CLR 03/00 A3010 RMK AO2 T00260000
KOGA 190755Z AUTO 00000KT 10SM CLR 03/00 A3010 RMK AO2 T00320001
KOGA 190735Z AUTO 00000KT 10SM CLR 04/01 A3010 RMK AO2 T00350005
KOGA 190715Z AUTO 00000KT 10SM CLR 04/00 A3010 RMK AO2 T00360001
KOGA 190655Z AUTO 00000KT 10SM CLR 04/00 A3010 RMK AO2 T00420001 402440033
KOGA 190635Z AUTO 00000KT 10SM CLR 04/00 A3010 RMK AO2 T00410000
KOGA 190615Z AUTO 00000KT 10SM CLR 05/00 A3010 RMK AO2 T00530004
KOGA 190555Z AUTO 00000KT 10SM CLR 06/01 A3010 RMK AO2 T00640010 10177 20057
KOGA 190535Z AUTO 00000KT 10SM CLR 06/01 A3010 RMK AO2 T00590006
KOGA 190515Z AUTO 00000KT 10SM CLR 08/01 A3010 RMK AO2 T00790010
KOGA 190455Z AUTO 00000KT 10SM CLR 08/01 A3010 RMK AO2 T00770011
KOGA 190435Z AUTO 00000KT 10SM CLR 08/01 A3010 RMK AO2 T00800012
KOGA 190415Z AUTO 00000KT 10SM CLR 09/01 A3010 RMK AO2 T00890013
KOGA 190355Z AUTO 00000KT 10SM CLR 09/02 A3010 RMK AO2 T00860015
KOGA 190335Z AUTO 08003KT 10SM CLR 10/02 A3010 RMK AO2 T00980017
KOGA 190315Z AUTO 09004KT 10SM CLR 09/01 A3010 RMK AO2 T00940012
KOGA 190255Z AUTO 00000KT 10SM CLR 10/01 A3010 RMK AO2 T01000012
KOGA 190235Z AUTO 09003KT 10SM CLR 11/02 A3010 RMK AO2 T01090015
KOGA 190215Z AUTO 07004KT 10SM CLR 11/01 A3010 RMK AO2 T01070013
KOGA 190155Z AUTO 09004KT 10SM CLR 13/01 A3010 RMK AO2 T01270014
KOGA 190135Z AUTO 08005KT 10SM CLR 12/01 A3010 RMK AO2 T01220012
KOGA 190115Z AUTO 08004KT 10SM CLR 14/01 A3010 RMK AO2 T01390010
KOGA 190055Z AUTO 09004KT 10SM CLR 13/01 A3010 RMK AO2 T01270006
KOGA 190035Z AUTO 10003KT 10SM CLR 15/01 A3010 RMK AO2 T01470005
KOGA 190015Z AUTO 10004KT 10SM CLR 16/00 A3010 RMK AO2 T01600002
KOGA 182355Z AUTO 08004KT 10SM CLR 18/00 A3010 RMK AO2 T01790001 10244 20179
KOGA 182335Z AUTO 08005KT 10SM CLR 20/00 A3010 RMK AO2 T01990000
KOGA 182315Z AUTO 09007KT 10SM CLR 21/00 A3010 RMK AO2 T02141005
KOGA 182255Z AUTO 08007KT 10SM CLR 22/M01 A3009 RMK AO2 T02211012
KOGA 182235Z AUTO 09008KT 10SM CLR 23/M02 A3008 RMK AO2 T02261017
KOGA 182215Z AUTO 09008KT 10SM CLR 23/M02 A3008 RMK AO2 T02301017
KOGA 182155Z AUTO 07009KT 10SM CLR 24/M02 A3007 RMK AO2 T02351019
KOGA 182135Z AUTO 06008KT 10SM CLR 24/M03 A3007 RMK AO2 T02361027
KOGA 182115Z AUTO 05009KT 10SM CLR 24/M03 A3007 RMK AO2 T02381029
KOGA 182055Z AUTO 05008KT 10SM CLR 24/M03 A3006 RMK AO2 T02411030
KOGA 182035Z AUTO 08009G16KT 10SM CLR 24/M03 A3006 RMK AO2 T02421027
KOGA 182015Z AUTO 10011KT 10SM CLR 24/M03 A3006 RMK AO2 T02411031
KOGA 181955Z AUTO 07009G16KT 10SM CLR 24/M03 A3006 RMK AO2 T02401028
KOGA 181935Z AUTO 07012KT 10SM CLR 24/M03 A3006 RMK AO2 T02421031
KOGA 181915Z AUTO 04008G15KT 10SM CLR 24/M03 A3006 RMK AO2 T02401033
KOGA 181855Z AUTO 03011G16KT 10SM CLR 24/M04 A3007 RMK AO2 T02411036
KOGA 181835Z AUTO 04010G17KT 10SM CLR 24/M03 A3007 RMK AO2 T02381035
KOGA 181815Z AUTO 03011G15KT 10SM CLR 24/M04 A3007 RMK AO2 T02401039
KOGA 181755Z AUTO 04013KT 10SM CLR 24/M04 A3007 RMK AO2 T02361037 10236 20033
KOGA 181735Z AUTO 05014KT 10SM CLR 23/M05 A3007 RMK AO2 T02321048
KOGA 181715Z AUTO 36014KT 10SM CLR 23/M04 A3006 RMK AO2 T02341045
KOGA 181655Z AUTO 34014G19KT 10SM CLR 23/M05 A3005 RMK AO2 T02261048
KOGA 181635Z AUTO 32015KT 10SM CLR 22/M06 A3005 RMK AO2 T02221062
KOGA 181615Z AUTO 32020G24KT 10SM CLR 22/M07 A3004 RMK AO2 T02221068
KOGA 181555Z AUTO 31012KT 10SM CLR 22/M06 A3003 RMK AO2 T02151063
KOGA 181535Z AUTO 26007KT 10SM CLR 18/00 A3003 RMK AO2 T01811005
KOGA 181515Z AUTO 23007KT 10SM CLR 14/01 A3003 RMK AO2 T01440005
KOGA 181455Z AUTO 23005KT 10SM CLR 12/01 A3002 RMK AO2 T01230005
KOGA 181435Z AUTO 22004KT 10SM CLR 10/00 A3000 RMK AO2 T00950003
KOGA 181415Z AUTO 26004KT 10SM CLR 07/00 A2999 RMK AO2 T00670001
KOGA 181355Z AUTO 26005KT 10SM CLR 05/00 A2998 RMK AO2 T00501003
KOGA 181335Z AUTO 25005KT 10SM CLR 04/M01 A2997 RMK AO2 T00411010
KOGA 181315Z AUTO 00000KT 10SM CLR 03/M01 A2997 RMK AO2 T00331010
KOGA 181255Z AUTO 00000KT 10SM CLR 04/M01 A2997 RMK AO2 T00371010
KOGA 181235Z AUTO 29004KT 10SM CLR 04/M01 A2997 RMK AO2 T00411006
KOGA 181215Z AUTO 25007KT 10SM CLR 04/00 A2995 RMK AO2 T00391005
KOGA 181155Z AUTO 26005KT 10SM CLR 04/00 A2995 RMK AO2 T00371005 10092 20036
KOGA 181135Z AUTO 27004KT 10SM CLR 04/00 A2995 RMK AO2 T00371001
KOGA 181115Z AUTO 24004KT 10SM CLR 04/00 A2995 RMK AO2 T00401002
KOGA 181055Z AUTO 26004KT 10SM CLR 04/00 A2994 RMK AO2 T00401001
KOGA 181035Z AUTO 27006KT 10SM CLR 04/00 A2994 RMK AO2 T00421002
KOGA 181015Z AUTO 25007KT 10SM CLR 04/00 A2993 RMK AO2 T00411001
KOGA 180955Z AUTO 25004KT 10SM CLR 04/00 A2993 RMK AO2 T00401001
KOGA 180935Z AUTO 28003KT 10SM CLR 04/00 A2994 RMK AO2 T00411001
KOGA 180915Z AUTO 27005KT 10SM CLR 04/00 A2994 RMK AO2 T00440000
KOGA 180855Z AUTO 27005KT 10SM CLR 05/00 A2994 RMK AO2 T00461003
KOGA 180835Z AUTO 28005KT 10SM CLR 04/00 A2994 RMK AO2 T00400000
KOGA 180815Z AUTO 25005KT 10SM CLR 04/00 A2994 RMK AO2 T00391005